Time;durP1;ratioP1;P1;durP2;ratioP2;P2;SDS_P1;SDS_P2;PMS_P1;PMS_P2;Temp;Humidity;BMP_temperature;BMP_pressure;BME280_temperature;BME280_humidity;BME280_pressure;Samples;Min_cycle;Max_cycle;Signal;HPM_P1;HPM_P2
2023/07/14 00:01:31;;;;;;;;;;;20.20;99.90;;;;;;5005547;28;19937;-75
2023/07/14 00:03:57;;;;;;;;;;;20.20;99.90;;;;;;5007805;28;20631;-75
2023/07/14 00:06:23;;;;;;;;;;;20.10;99.90;;;;;;5007732;28;19960;-75
2023/07/14 00:08:49;;;;;;;;;;;20.10;99.90;;;;;;5007519;28;19943;-75
2023/07/14 00:11:16;;;;;;;;;;;20.10;99.90;;;;;;5008911;28;20755;-75
2023/07/14 00:13:41;;;;;;;;;;;20.10;99.90;;;;;;5000991;28;19939;-75
2023/07/14 00:16:14;;;;;;;;;;;20.20;99.90;;;;;;5005628;28;19939;-75
2023/07/14 00:18:40;;;;;;;;;;;20.20;99.90;;;;;;5005544;28;19935;-76
2023/07/14 00:21:13;;;;;;;;;;;20.30;99.90;;;;;;5005790;28;19948;-68
2023/07/14 00:23:38;;;;;;;;;;;20.30;99.90;;;;;;5001624;28;19932;-68
2023/07/14 00:26:04;;;;;;;;;;;20.30;99.90;;;;;;5004659;28;19960;-68
2023/07/14 00:28:30;;;;;;;;;;;20.20;99.90;;;;;;5004911;28;19942;-68
2023/07/14 00:30:55;;;;;;;;;;;20.20;99.90;;;;;;5003153;28;19932;-67
2023/07/14 00:33:21;;;;;;;;;;;20.10;99.90;;;;;;5001905;28;20011;-68
2023/07/14 00:35:49;;;;;;;;;;;20.10;99.90;;;;;;5006791;28;19931;-68
2023/07/14 00:38:15;;;;;;;;;;;20.10;99.90;;;;;;5003199;28;19930;-67
2023/07/14 00:40:41;;;;;;;;;;;20.00;99.90;;;;;;5002458;28;20000;-67
2023/07/14 00:43:27;;;;;;;;;;;19.90;99.90;;;;;;4994308;28;19942;-68
2023/07/14 00:45:54;;;;;;;;;;;19.90;99.90;;;;;;5006479;28;20065;-67
2023/07/14 00:48:20;;;;;;;;;;;19.90;99.90;;;;;;5002988;28;19964;-68
2023/07/14 00:51:05;;;;;;;;;;;19.80;99.90;;;;;;4994189;28;20446;-68
2023/07/14 00:53:32;;;;;;;;;;;19.70;99.90;;;;;;5006517;28;19934;-68
2023/07/14 00:56:09;;;;;;;;;;;19.60;99.90;;;;;;5008674;28;20378;-67
2023/07/14 00:58:35;;;;;;;;;;;19.60;99.90;;;;;;5008002;28;19980;-68
2023/07/14 01:01:04;;;;;;;;;;;19.60;99.90;;;;;;5008097;28;19932;-67
2023/07/14 01:03:30;;;;;;;;;;;19.60;99.90;;;;;;4999541;28;19938;-67
2023/07/14 01:05:56;;;;;;;;;;;19.70;99.90;;;;;;4991545;28;20628;-67
2023/07/14 01:08:23;;;;;;;;;;;19.60;99.90;;;;;;5008016;28;19932;-68
2023/07/14 01:10:49;;;;;;;;;;;19.70;99.90;;;;;;5001613;28;19980;-68
2023/07/14 01:13:15;;;;;;;;;;;19.70;99.90;;;;;;5000225;28;20596;-68
2023/07/14 01:15:42;;;;;;;;;;;19.70;99.90;;;;;;5007364;28;20043;-75
2023/07/14 01:18:08;;;;;;;;;;;19.60;99.90;;;;;;4987117;28;19932;-75
2023/07/14 01:20:37;;;;;;;;;;;19.70;99.90;;;;;;5005500;28;20075;-76
2023/07/14 01:23:08;;;;;;;;;;;19.70;99.90;;;;;;5000463;28;19933;-75
2023/07/14 01:25:37;;;;;;;;;;;19.70;99.90;;;;;;5000088;28;19950;-76
2023/07/14 01:28:04;;;;;;;;;;;19.60;99.90;;;;;;4999931;28;20395;-76
2023/07/14 01:30:29;;;;;;;;;;;19.60;99.90;;;;;;4986822;28;20375;-75
2023/07/14 01:32:55;;;;;;;;;;;19.60;99.90;;;;;;5002899;28;20025;-75
2023/07/14 01:35:26;;;;;;;;;;;19.60;99.90;;;;;;5002200;28;19938;-75
2023/07/14 01:37:51;;;;;;;;;;;19.60;99.90;;;;;;5001239;28;19931;-75
2023/07/14 01:40:18;;;;;;;;;;;19.60;99.90;;;;;;5006799;28;19944;-75
2023/07/14 01:42:46;;;;;;;;;;;19.60;99.90;;;;;;5007327;28;20373;-75
2023/07/14 01:45:13;;;;;;;;;;;19.60;99.90;;;;;;5005941;28;20351;-75
2023/07/14 01:47:41;;;;;;;;;;;19.60;99.90;;;;;;4999131;28;20450;-75
2023/07/14 01:50:15;;;;;;;;;;;19.50;99.90;;;;;;4997484;28;19945;-75
2023/07/14 01:52:42;;;;;;;;;;;19.50;99.90;;;;;;5006201;28;19928;-67
2023/07/14 01:55:10;;;;;;;;;;;19.50;99.90;;;;;;4986660;28;20368;-68
2023/07/14 01:57:36;;;;;;;;;;;19.50;99.90;;;;;;5005367;28;20026;-67
2023/07/14 02:00:04;;;;;;;;;;;19.60;99.90;;;;;;4995497;28;20013;-68
2023/07/14 02:02:36;;;;;;;;;;;19.60;99.90;;;;;;5009277;28;19928;-68
2023/07/14 02:05:04;;;;;;;;;;;19.50;99.90;;;;;;5002470;28;21820;-68
2023/07/14 02:07:31;;;;;;;;;;;19.40;99.90;;;;;;4995626;28;19938;-67
2023/07/14 02:09:56;;;;;;;;;;;19.40;99.90;;;;;;5005970;28;19958;-68
2023/07/14 02:12:29;;;;;;;;;;;19.30;99.90;;;;;;5006103;28;20392;-75
2023/07/14 02:15:13;;;;;;;;;;;19.30;99.90;;;;;;5004728;28;19937;-75
2023/07/14 02:17:39;;;;;;;;;;;19.30;99.90;;;;;;5003482;28;20034;-75
2023/07/14 02:20:06;;;;;;;;;;;19.30;99.90;;;;;;5005301;28;19947;-75
2023/07/14 02:22:33;;;;;;;;;;;19.20;99.90;;;;;;5008874;28;19936;-76
2023/07/14 02:24:59;;;;;;;;;;;19.10;99.90;;;;;;5000799;28;19939;-75
2023/07/14 02:27:24;;;;;;;;;;;19.10;99.90;;;;;;4989309;28;19955;-75
2023/07/14 02:29:50;;;;;;;;;;;19.10;99.90;;;;;;5003598;28;19936;-75
2023/07/14 02:32:30;;;;;;;;;;;19.00;99.90;;;;;;5003039;28;19935;-75
2023/07/14 02:34:59;;;;;;;;;;;19.00;99.90;;;;;;5007200;28;19947;-75
2023/07/14 02:38:00;;;;;;;;;;;18.90;99.90;;;;;;5005972;28;20465;-75
2023/07/14 02:40:20;;;;;;;;;;;18.90;99.90;;;;;;4995335;28;19936;-75
2023/07/14 02:42:46;;;;;;;;;;;18.80;99.90;;;;;;5003723;28;19942;-75
2023/07/14 02:45:14;;;;;;;;;;;18.70;99.90;;;;;;4987949;28;20459;-75
2023/07/14 02:47:40;;;;;;;;;;;18.70;99.90;;;;;;5004828;28;19980;-68
2023/07/14 02:50:06;;;;;;;;;;;18.70;99.90;;;;;;5003147;28;19939;-67
2023/07/14 02:52:32;;;;;;;;;;;18.70;99.90;;;;;;5006036;28;19933;-67
2023/07/14 02:54:57;;;;;;;;;;;18.60;99.90;;;;;;4989969;28;21140;-67
2023/07/14 02:57:23;;;;;;;;;;;18.50;99.90;;;;;;4987528;28;19934;-68
2023/07/14 02:59:48;;;;;;;;;;;18.30;99.90;;;;;;4981381;28;20066;-67
2023/07/14 03:02:14;;;;;;;;;;;18.30;99.90;;;;;;5003134;28;20350;-67
2023/07/14 03:04:39;;;;;;;;;;;18.30;99.90;;;;;;5004614;28;19950;-68
2023/07/14 03:07:05;;;;;;;;;;;18.20;99.90;;;;;;4999678;28;20095;-68
2023/07/14 03:09:31;;;;;;;;;;;18.20;99.90;;;;;;5001084;28;20262;-67
2023/07/14 03:11:56;;;;;;;;;;;18.10;99.90;;;;;;5004402;28;19980;-67
2023/07/14 03:14:21;;;;;;;;;;;18.10;99.90;;;;;;4995818;28;21216;-68
2023/07/14 03:16:47;;;;;;;;;;;18.00;99.90;;;;;;5004891;28;19927;-67
2023/07/14 03:19:13;;;;;;;;;;;18.00;99.90;;;;;;4997312;28;19932;-68
2023/07/14 03:21:38;;;;;;;;;;;18.00;99.90;;;;;;4986541;28;20404;-67
2023/07/14 03:24:05;;;;;;;;;;;18.00;99.90;;;;;;5003216;28;19930;-75
2023/07/14 03:26:31;;;;;;;;;;;18.00;99.90;;;;;;4999010;28;19960;-67
2023/07/14 03:28:57;;;;;;;;;;;18.00;99.90;;;;;;5001391;28;19976;-68
2023/07/14 03:31:22;;;;;;;;;;;18.00;99.90;;;;;;4999504;28;20325;-67
2023/07/14 03:33:48;;;;;;;;;;;18.10;99.90;;;;;;4985737;28;19948;-68
2023/07/14 03:36:14;;;;;;;;;;;18.10;99.90;;;;;;4996578;28;19941;-67
2023/07/14 03:38:41;;;;;;;;;;;18.20;99.90;;;;;;4998627;28;20668;-67
2023/07/14 03:41:07;;;;;;;;;;;18.20;99.90;;;;;;5003353;28;19958;-68
2023/07/14 03:43:32;;;;;;;;;;;18.20;99.90;;;;;;5000492;28;20031;-75
2023/07/14 03:45:58;;;;;;;;;;;18.30;99.90;;;;;;5004739;28;19985;-75
2023/07/14 03:48:23;;;;;;;;;;;18.30;99.90;;;;;;5001370;28;19963;-75
2023/07/14 03:50:49;;;;;;;;;;;18.30;99.90;;;;;;5003350;28;20373;-74
2023/07/14 03:53:15;;;;;;;;;;;18.30;99.90;;;;;;5000472;28;19947;-75
2023/07/14 03:55:40;;;;;;;;;;;18.20;99.90;;;;;;4990240;28;19976;-75
2023/07/14 03:58:06;;;;;;;;;;;18.30;99.90;;;;;;5002123;28;19942;-75
2023/07/14 04:00:32;;;;;;;;;;;18.30;99.90;;;;;;5001078;28;20658;-68
2023/07/14 04:02:58;;;;;;;;;;;18.40;99.90;;;;;;4998190;28;19960;-74
2023/07/14 04:05:23;;;;;;;;;;;18.50;99.90;;;;;;5002043;28;19944;-75
2023/07/14 04:07:50;;;;;;;;;;;18.50;99.90;;;;;;5001747;28;19937;-74
2023/07/14 04:10:17;;;;;;;;;;;18.60;99.90;;;;;;5000112;28;19944;-74
2023/07/14 04:12:43;;;;;;;;;;;18.60;99.90;;;;;;4997774;28;19936;-75
2023/07/14 04:15:09;;;;;;;;;;;18.60;99.90;;;;;;4995409;28;19997;-75
2023/07/14 04:17:34;;;;;;;;;;;18.70;99.90;;;;;;5003729;28;19963;-74
2023/07/14 04:20:00;;;;;;;;;;;18.80;99.90;;;;;;4989651;28;20374;-68
2023/07/14 04:22:25;;;;;;;;;;;18.80;99.90;;;;;;5012562;28;19929;-67
2023/07/14 04:24:51;;;;;;;;;;;18.90;99.90;;;;;;5007919;28;19935;-67
2023/07/14 04:27:16;;;;;;;;;;;19.00;99.90;;;;;;5009659;28;20626;-67
2023/07/14 04:29:42;;;;;;;;;;;19.10;99.90;;;;;;5004976;28;19934;-67
2023/07/14 04:32:08;;;;;;;;;;;19.20;99.90;;;;;;5012033;28;20698;-67
2023/07/14 04:34:34;;;;;;;;;;;19.20;99.90;;;;;;5004788;28;20400;-67
2023/07/14 04:37:00;;;;;;;;;;;19.20;99.90;;;;;;5006307;28;19948;-67
2023/07/14 04:39:26;;;;;;;;;;;19.30;99.90;;;;;;4989171;28;19946;-75
2023/07/14 04:41:54;;;;;;;;;;;19.40;99.90;;;;;;5008263;28;19936;-75
2023/07/14 04:44:19;;;;;;;;;;;19.40;99.90;;;;;;4999411;28;19931;-75
2023/07/14 04:46:45;;;;;;;;;;;19.50;99.90;;;;;;5001816;28;21030;-75
2023/07/14 04:49:11;;;;;;;;;;;19.70;99.90;;;;;;5003890;28;19927;-75
2023/07/14 04:51:37;;;;;;;;;;;19.70;99.90;;;;;;5002957;28;19925;-75
2023/07/14 04:54:03;;;;;;;;;;;19.80;99.90;;;;;;5006296;28;19939;-75
2023/07/14 04:56:29;;;;;;;;;;;19.90;99.90;;;;;;5004845;28;19979;-74
2023/07/14 04:58:55;;;;;;;;;;;19.90;99.90;;;;;;5005207;28;19931;-67
2023/07/14 05:01:20;;;;;;;;;;;20.10;99.90;;;;;;5002014;28;20460;-67
2023/07/14 05:03:46;;;;;;;;;;;20.10;99.90;;;;;;5001553;28;19935;-67
2023/07/14 05:06:12;;;;;;;;;;;20.30;99.90;;;;;;4996988;28;19967;-67
2023/07/14 05:08:37;;;;;;;;;;;20.30;99.90;;;;;;5002941;28;21706;-67
2023/07/14 05:11:03;;;;;;;;;;;20.40;99.90;;;;;;4989013;28;20237;-67
2023/07/14 05:13:29;;;;;;;;;;;20.50;99.90;;;;;;5007680;28;19931;-67
2023/07/14 05:15:58;;;;;;;;;;;20.60;99.90;;;;;;5002992;28;20335;-74
2023/07/14 05:18:24;;;;;;;;;;;20.70;99.90;;;;;;5005652;28;20013;-75
2023/07/14 05:20:50;;;;;;;;;;;20.80;99.90;;;;;;5005608;28;19933;-74
2023/07/14 05:23:16;;;;;;;;;;;20.80;99.90;;;;;;4990475;28;19927;-75
2023/07/14 05:25:41;;;;;;;;;;;20.90;99.90;;;;;;5005230;28;19952;-75
2023/07/14 05:28:07;;;;;;;;;;;21.00;99.90;;;;;;4992492;28;20048;-74
2023/07/14 05:30:33;;;;;;;;;;;21.00;99.90;;;;;;5004682;28;20203;-74
2023/07/14 05:32:59;;;;;;;;;;;21.00;99.90;;;;;;4991483;28;20722;-75
2023/07/14 05:35:25;;;;;;;;;;;21.00;99.90;;;;;;5006589;28;19931;-75
2023/07/14 05:37:50;;;;;;;;;;;21.10;99.90;;;;;;5006633;28;19927;-75
2023/07/14 05:40:17;;;;;;;;;;;21.20;99.90;;;;;;5003465;28;19932;-66
2023/07/14 05:42:43;;;;;;;;;;;21.30;99.90;;;;;;5002455;28;19939;-76
2023/07/14 05:45:10;;;;;;;;;;;21.40;99.90;;;;;;5002777;28;19969;-75
2023/07/14 05:47:36;;;;;;;;;;;21.40;99.90;;;;;;5000679;28;20895;-76
2023/07/14 05:50:03;;;;;;;;;;;21.50;99.90;;;;;;5006217;28;19938;-76
2023/07/14 05:52:28;;;;;;;;;;;21.50;99.90;;;;;;5002579;28;20346;-68
2023/07/14 05:54:54;;;;;;;;;;;21.50;99.90;;;;;;5003078;28;21059;-67
2023/07/14 05:57:19;;;;;;;;;;;21.50;99.90;;;;;;5003126;28;19943;-67
2023/07/14 05:59:45;;;;;;;;;;;21.50;99.90;;;;;;4996502;28;19924;-68
2023/07/14 06:02:14;;;;;;;;;;;21.50;99.90;;;;;;5003172;28;20529;-68
2023/07/14 06:04:42;;;;;;;;;;;21.60;99.90;;;;;;5000655;28;19941;-68
2023/07/14 06:07:11;;;;;;;;;;;21.70;99.90;;;;;;5009846;28;19953;-68
2023/07/14 06:09:37;;;;;;;;;;;21.80;99.90;;;;;;5007688;28;19941;-68
2023/07/14 06:12:04;;;;;;;;;;;21.90;99.90;;;;;;5000745;28;19937;-67
2023/07/14 06:14:36;;;;;;;;;;;22.00;99.90;;;;;;4995822;28;20395;-67
2023/07/14 06:17:02;;;;;;;;;;;22.10;99.90;;;;;;4997551;28;19945;-68
2023/07/14 06:19:28;;;;;;;;;;;22.10;99.90;;;;;;4996562;28;19991;-67
2023/07/14 06:21:54;;;;;;;;;;;22.20;99.90;;;;;;5004427;28;19923;-68
2023/07/14 06:24:20;;;;;;;;;;;22.40;99.90;;;;;;5010201;28;19976;-67
2023/07/14 06:26:46;;;;;;;;;;;22.40;99.90;;;;;;5009716;28;20031;-68
2023/07/14 06:29:12;;;;;;;;;;;22.40;99.90;;;;;;4987682;28;20412;-77
2023/07/14 06:31:37;;;;;;;;;;;22.50;99.90;;;;;;4981715;28;20950;-77
2023/07/14 06:34:03;;;;;;;;;;;22.50;99.90;;;;;;5009325;28;20232;-77
2023/07/14 06:36:28;;;;;;;;;;;22.60;99.90;;;;;;5003717;28;20010;-74
2023/07/14 06:38:54;;;;;;;;;;;22.70;99.90;;;;;;5006815;28;20014;-78
2023/07/14 06:41:20;;;;;;;;;;;22.90;99.90;;;;;;5003068;28;19935;-78
2023/07/14 06:43:45;;;;;;;;;;;22.90;99.90;;;;;;5001503;28;21325;-76
2023/07/14 06:46:11;;;;;;;;;;;22.90;99.90;;;;;;5004833;28;20455;-68
2023/07/14 06:48:36;;;;;;;;;;;22.80;99.90;;;;;;5001537;28;19986;-69
2023/07/14 06:51:02;;;;;;;;;;;22.90;99.90;;;;;;4973177;28;20023;-69
2023/07/14 06:53:28;;;;;;;;;;;23.00;99.90;;;;;;5002284;28;19933;-68
2023/07/14 06:55:54;;;;;;;;;;;23.10;99.90;;;;;;5006699;28;19933;-69
2023/07/14 06:58:19;;;;;;;;;;;23.30;99.90;;;;;;4995403;28;21426;-69
2023/07/14 07:00:45;;;;;;;;;;;23.50;99.90;;;;;;4995433;28;20487;-69
2023/07/14 07:03:11;;;;;;;;;;;23.60;99.90;;;;;;4998987;28;19982;-69
2023/07/14 07:05:37;;;;;;;;;;;23.70;99.90;;;;;;4997159;28;19956;-68
2023/07/14 07:08:03;;;;;;;;;;;23.90;99.90;;;;;;4997060;28;19966;-69
2023/07/14 07:10:29;;;;;;;;;;;24.00;99.90;;;;;;5008004;28;21958;-69
2023/07/14 07:12:55;;;;;;;;;;;24.20;99.90;;;;;;4974161;28;19945;-69
2023/07/14 07:15:20;;;;;;;;;;;24.30;99.90;;;;;;4999604;28;19933;-69
2023/07/14 07:17:46;;;;;;;;;;;24.30;99.90;;;;;;4997478;28;19936;-69
2023/07/14 07:20:12;;;;;;;;;;;24.40;99.90;;;;;;5002447;28;19930;-67
2023/07/14 07:22:38;;;;;;;;;;;24.40;99.90;;;;;;4990368;28;19940;-67
2023/07/14 07:25:04;;;;;;;;;;;24.40;99.90;;;;;;4998712;28;20078;-68
2023/07/14 07:27:30;;;;;;;;;;;24.50;99.90;;;;;;4990798;28;20019;-69
2023/07/14 07:29:55;;;;;;;;;;;24.50;99.90;;;;;;4996062;28;19935;-68
2023/07/14 07:32:21;;;;;;;;;;;24.50;99.90;;;;;;4997202;28;19934;-68
2023/07/14 07:34:46;;;;;;;;;;;24.50;99.90;;;;;;5003923;28;19946;-68
2023/07/14 07:37:12;;;;;;;;;;;24.50;99.90;;;;;;5003721;28;19976;-67
2023/07/14 07:39:38;;;;;;;;;;;24.50;99.90;;;;;;4995728;28;19977;-69
2023/07/14 07:42:04;;;;;;;;;;;24.50;99.90;;;;;;4999156;28;19929;-68
2023/07/14 07:44:30;;;;;;;;;;;24.50;99.90;;;;;;5001045;28;20725;-69
2023/07/14 07:46:56;;;;;;;;;;;24.60;99.90;;;;;;4992198;28;19956;-68
2023/07/14 07:49:21;;;;;;;;;;;24.70;99.90;;;;;;4997831;28;19928;-69
2023/07/14 07:51:47;;;;;;;;;;;24.90;99.90;;;;;;5005469;28;19934;-68
2023/07/14 07:54:13;;;;;;;;;;;24.90;99.90;;;;;;5005885;28;20045;-68
2023/07/14 07:56:43;;;;;;;;;;;25.00;99.90;;;;;;5001941;28;19924;-68
2023/07/14 07:59:17;;;;;;;;;;;25.10;99.90;;;;;;4992688;28;19936;-68
2023/07/14 08:01:43;;;;;;;;;;;25.10;99.90;;;;;;5004858;28;19945;-68
2023/07/14 08:04:09;;;;;;;;;;;25.20;99.90;;;;;;5004987;28;20079;-68
2023/07/14 08:06:36;;;;;;;;;;;25.00;99.90;;;;;;4994551;28;20032;-67
2023/07/14 08:09:06;;;;;;;;;;;24.90;99.90;;;;;;5006295;28;21739;-68
2023/07/14 08:11:31;;;;;;;;;;;24.90;99.90;;;;;;5008475;28;20676;-68
2023/07/14 08:14:01;;;;;;;;;;;24.80;99.90;;;;;;5005006;28;20538;-68
2023/07/14 08:16:27;;;;;;;;;;;24.60;99.90;;;;;;5003722;28;20359;-68
2023/07/14 08:18:53;;;;;;;;;;;24.60;99.90;;;;;;4993339;28;19936;-68
2023/07/14 08:21:18;;;;;;;;;;;24.70;99.90;;;;;;4990582;28;19939;-66
2023/07/14 08:23:44;;;;;;;;;;;24.80;99.90;;;;;;4989593;28;20437;-66
2023/07/14 08:26:10;;;;;;;;;;;25.00;99.90;;;;;;4982123;28;19954;-67
2023/07/14 08:28:36;;;;;;;;;;;25.10;99.90;;;;;;4984521;28;20008;-65
2023/07/14 08:31:08;;;;;;;;;;;25.20;99.90;;;;;;4997223;28;19993;-65
2023/07/14 08:33:34;;;;;;;;;;;25.10;99.90;;;;;;5004686;28;19946;-66
2023/07/14 08:36:01;;;;;;;;;;;25.00;99.90;;;;;;4978608;28;19923;-66
2023/07/14 08:38:27;;;;;;;;;;;25.00;99.90;;;;;;4996066;28;19957;-66
2023/07/14 08:40:53;;;;;;;;;;;25.10;99.90;;;;;;5002239;28;19932;-66
2023/07/14 08:43:22;;;;;;;;;;;25.30;99.90;;;;;;4983329;28;19958;-66
2023/07/14 08:45:55;;;;;;;;;;;25.40;99.90;;;;;;5002530;28;20386;-66
2023/07/14 08:48:37;;;;;;;;;;;25.40;99.90;;;;;;4994493;28;19966;-66
2023/07/14 08:51:06;;;;;;;;;;;25.40;99.90;;;;;;5004560;28;19943;-66
2023/07/14 08:53:33;;;;;;;;;;;25.50;99.90;;;;;;4999968;28;19940;-66
2023/07/14 08:56:03;;;;;;;;;;;25.60;99.90;;;;;;5003729;28;19939;-66
2023/07/14 08:58:30;;;;;;;;;;;25.70;99.90;;;;;;4989566;28;19942;-66
2023/07/14 09:01:22;;;;;;;;;;;25.60;99.90;;;;;;4993268;28;19940;-66
2023/07/14 09:03:50;;;;;;;;;;;25.60;99.90;;;;;;4988279;28;19977;-67
2023/07/14 09:06:15;;;;;;;;;;;25.70;99.90;;;;;;4991241;28;19959;-66
2023/07/14 09:08:41;;;;;;;;;;;25.70;99.90;;;;;;5002561;28;19925;-67
2023/07/14 09:11:13;;;;;;;;;;;25.70;99.90;;;;;;5000935;28;19950;-67
2023/07/14 09:13:57;;;;;;;;;;;25.70;99.90;;;;;;5001928;28;19973;-66
2023/07/14 09:16:23;;;;;;;;;;;25.80;99.90;;;;;;4998959;28;19924;-69
2023/07/14 09:19:02;;;;;;;;;;;26.00;99.90;;;;;;4997739;28;19932;-68
2023/07/14 09:21:36;;;;;;;;;;;26.10;99.90;;;;;;5004631;28;19930;-69
2023/07/14 09:24:20;;;;;;;;;;;26.10;99.90;;;;;;4998345;28;19945;-69
2023/07/14 09:26:50;;;;;;;;;;;26.00;99.90;;;;;;4987951;28;20398;-69
2023/07/14 09:29:18;;;;;;;;;;;26.00;99.90;;;;;;4992504;28;19935;-68
2023/07/14 09:31:48;;;;;;;;;;;26.10;99.90;;;;;;5006633;28;20457;-68
2023/07/14 09:34:17;;;;;;;;;;;26.10;99.90;;;;;;4987402;28;19942;-66
2023/07/14 09:36:43;;;;;;;;;;;26.00;99.90;;;;;;4992049;28;19993;-66
2023/07/14 09:39:18;;;;;;;;;;;26.00;99.90;;;;;;4998306;28;19932;-66
2023/07/14 09:41:46;;;;;;;;;;;26.10;99.90;;;;;;4999257;28;19958;-67
2023/07/14 09:44:12;;;;;;;;;;;26.20;99.90;;;;;;5003980;28;19926;-67
2023/07/14 09:46:40;;;;;;;;;;;26.40;99.90;;;;;;4991734;28;20005;-66
2023/07/14 09:49:12;;;;;;;;;;;26.50;99.90;;;;;;4979658;28;19999;-66
2023/07/14 09:51:38;;;;;;;;;;;26.60;99.90;;;;;;4973013;28;20462;-66
2023/07/14 09:54:09;;;;;;;;;;;26.50;99.90;;;;;;4995607;28;19930;-67
2023/07/14 09:56:37;;;;;;;;;;;26.60;99.90;;;;;;5002337;28;19937;-67
2023/07/14 09:59:04;;;;;;;;;;;26.60;99.90;;;;;;4989430;28;20040;-68
2023/07/14 10:01:31;;;;;;;;;;;26.70;99.90;;;;;;5001882;28;19921;-66
2023/07/14 10:03:58;;;;;;;;;;;26.80;99.90;;;;;;4989916;28;20601;-66
2023/07/14 10:06:26;;;;;;;;;;;26.80;99.90;;;;;;5014627;28;19961;-67
2023/07/14 10:08:56;;;;;;;;;;;26.80;99.90;;;;;;5010013;28;19934;-67
2023/07/14 10:11:26;;;;;;;;;;;26.60;99.90;;;;;;5014454;28;20079;-66
2023/07/14 10:13:57;;;;;;;;;;;26.50;99.90;;;;;;5008846;28;19947;-66
2023/07/14 10:16:23;;;;;;;;;;;26.60;99.90;;;;;;5014809;28;19972;-67
2023/07/14 10:18:51;;;;;;;;;;;26.60;99.90;;;;;;5018232;28;19973;-67
2023/07/14 10:21:22;;;;;;;;;;;26.60;99.90;;;;;;5014163;28;19930;-67
2023/07/14 10:23:57;;;;;;;;;;;26.60;99.90;;;;;;5015326;28;19925;-66
2023/07/14 10:26:24;;;;;;;;;;;26.60;99.90;;;;;;5012629;28;19953;-67
2023/07/14 10:28:50;;;;;;;;;;;26.60;99.90;;;;;;4989778;28;19927;-67
2023/07/14 10:31:55;;;;;;;;;;;26.70;99.90;;;;;;4981584;28;19998;-68
2023/07/14 10:34:23;;;;;;;;;;;26.70;99.90;;;;;;4942204;28;20527;-68
2023/07/14 10:36:50;;;;;;;;;;;27.00;99.90;;;;;;4938758;28;20099;-68
2023/07/14 10:39:19;;;;;;;;;;;27.10;99.90;;;;;;4973988;28;19935;-68
2023/07/14 10:41:45;;;;;;;;;;;27.30;99.90;;;;;;5005204;28;20249;-67
2023/07/14 10:44:15;;;;;;;;;;;27.30;99.90;;;;;;5011707;28;19936;-68
2023/07/14 10:46:45;;;;;;;;;;;27.20;99.90;;;;;;5000778;28;19957;-67
2023/07/14 10:49:30;;;;;;;;;;;27.00;99.90;;;;;;5007579;28;19932;-66
2023/07/14 10:51:57;;;;;;;;;;;27.00;99.90;;;;;;4996832;28;19926;-66
2023/07/14 10:54:33;;;;;;;;;;;26.90;99.90;;;;;;4998314;28;19936;-66
2023/07/14 10:57:05;;;;;;;;;;;27.00;99.90;;;;;;5019877;28;19944;-66
2023/07/14 10:59:46;;;;;;;;;;;27.20;99.90;;;;;;5003660;28;20084;-67
2023/07/14 11:02:15;;;;;;;;;;;27.40;99.90;;;;;;5000105;28;19932;-67
2023/07/14 11:04:42;;;;;;;;;;;27.50;99.90;;;;;;5009807;28;19913;-67
2023/07/14 11:07:14;;;;;;;;;;;27.30;99.90;;;;;;5012419;28;19959;-67
2023/07/14 11:09:40;;;;;;;;;;;27.30;99.90;;;;;;5005567;28;19981;-67
2023/07/14 11:12:05;;;;;;;;;;;27.40;99.90;;;;;;5009717;28;20032;-66
2023/07/14 11:14:31;;;;;;;;;;;27.30;99.90;;;;;;5012524;28;19931;-66
2023/07/14 11:16:56;;;;;;;;;;;27.30;99.90;;;;;;5006370;28;19922;-66
2023/07/14 11:19:37;;;;;;;;;;;27.40;99.90;;;;;;5013021;28;19944;-66
2023/07/14 11:22:08;;;;;;;;;;;27.50;99.90;;;;;;5004445;28;19936;-66
2023/07/14 11:24:38;;;;;;;;;;;27.60;99.90;;;;;;4992923;28;21869;-66
2023/07/14 11:27:10;;;;;;;;;;;27.70;99.90;;;;;;5007894;28;20461;-66
2023/07/14 11:29:42;;;;;;;;;;;27.80;99.90;;;;;;5008235;28;19926;-66
2023/07/14 11:32:15;;;;;;;;;;;27.90;99.90;;;;;;4999246;28;20293;-66
2023/07/14 11:34:45;;;;;;;;;;;27.90;99.90;;;;;;4995687;28;19949;-65
2023/07/14 11:37:43;;;;;;;;;;;28.00;99.90;;;;;;5007792;28;19972;-66
2023/07/14 11:40:11;;;;;;;;;;;28.10;99.90;;;;;;4990220;28;19980;-65
2023/07/14 11:42:38;;;;;;;;;;;28.10;99.90;;;;;;5009437;28;19937;-66
2023/07/14 11:45:23;;;;;;;;;;;28.00;99.70;;;;;;5015435;28;19950;-66
2023/07/14 11:47:49;;;;;;;;;;;28.00;99.90;;;;;;4997534;28;20028;-66
2023/07/14 11:50:15;;;;;;;;;;;28.20;99.20;;;;;;5009395;28;19972;-66
2023/07/14 11:52:42;;;;;;;;;;;28.20;96.90;;;;;;5008467;28;20031;-66
2023/07/14 11:55:22;;;;;;;;;;;28.10;99.70;;;;;;5014658;28;20021;-66
2023/07/14 11:57:49;;;;;;;;;;;28.10;98.30;;;;;;5004449;28;19979;-66
2023/07/14 12:00:15;;;;;;;;;;;28.20;99.10;;;;;;4997281;28;19976;-66
2023/07/14 12:02:42;;;;;;;;;;;28.20;99.00;;;;;;4989446;28;19927;-66
2023/07/14 12:05:14;;;;;;;;;;;28.30;98.50;;;;;;5002862;28;19939;-66
2023/07/14 12:07:58;;;;;;;;;;;28.40;97.90;;;;;;4992898;28;19960;-66
2023/07/14 12:10:40;;;;;;;;;;;28.50;99.20;;;;;;4977117;28;19930;-66
2023/07/14 12:13:18;;;;;;;;;;;28.50;96.80;;;;;;4986114;28;19935;-66
2023/07/14 12:15:56;;;;;;;;;;;28.50;94.40;;;;;;5002861;28;19972;-66
2023/07/14 12:18:32;;;;;;;;;;;28.40;97.00;;;;;;5001005;28;19928;-66
2023/07/14 12:21:16;;;;;;;;;;;28.40;97.40;;;;;;5002294;28;19924;-67
2023/07/14 12:23:42;;;;;;;;;;;28.60;97.10;;;;;;5003757;28;20024;-66
2023/07/14 12:26:12;;;;;;;;;;;28.60;93.40;;;;;;4997380;28;19979;-66
2023/07/14 12:28:38;;;;;;;;;;;28.60;95.50;;;;;;4982326;28;19952;-66
2023/07/14 12:31:06;;;;;;;;;;;28.70;92.30;;;;;;4983040;28;20823;-67
2023/07/14 12:33:31;;;;;;;;;;;28.70;94.50;;;;;;4972065;28;20317;-66
2023/07/14 12:36:00;;;;;;;;;;;28.80;94.10;;;;;;4988209;28;20580;-66
2023/07/14 12:38:27;;;;;;;;;;;28.80;93.00;;;;;;5009421;28;20036;-66
2023/07/14 12:40:54;;;;;;;;;;;28.80;91.10;;;;;;5011241;28;20030;-66
2023/07/14 12:43:20;;;;;;;;;;;28.70;91.60;;;;;;5009867;28;20046;-66
2023/07/14 12:45:45;;;;;;;;;;;28.70;90.10;;;;;;5010427;28;20239;-67
2023/07/14 12:48:11;;;;;;;;;;;28.70;90.10;;;;;;5006601;28;19968;-65
2023/07/14 12:50:40;;;;;;;;;;;28.70;92.40;;;;;;4999553;28;20215;-66
2023/07/14 12:53:11;;;;;;;;;;;28.70;92.60;;;;;;5015236;28;20689;-66
2023/07/14 12:55:37;;;;;;;;;;;28.90;93.00;;;;;;5010394;28;19970;-66
2023/07/14 12:58:07;;;;;;;;;;;28.90;90.70;;;;;;5011374;28;20401;-65
2023/07/14 13:00:33;;;;;;;;;;;28.80;90.60;;;;;;5011744;28;19934;-65
2023/07/14 13:02:59;;;;;;;;;;;28.70;90.50;;;;;;5010895;28;19993;-65
2023/07/14 13:05:29;;;;;;;;;;;28.60;91.30;;;;;;4999337;28;20081;-68
2023/07/14 13:07:55;;;;;;;;;;;28.50;89.70;;;;;;5003550;28;19978;-67
2023/07/14 13:10:41;;;;;;;;;;;28.30;89.70;;;;;;5008292;28;20003;-66
2023/07/14 13:13:18;;;;;;;;;;;28.20;90.70;;;;;;5009727;28;19928;-66
2023/07/14 13:15:43;;;;;;;;;;;28.10;90.70;;;;;;5008320;28;19929;-66
2023/07/14 13:18:16;;;;;;;;;;;28.00;91.10;;;;;;5009854;28;19928;-67
2023/07/14 13:20:41;;;;;;;;;;;27.90;91.10;;;;;;5006495;28;19927;-66
2023/07/14 13:23:10;;;;;;;;;;;27.80;91.20;;;;;;5008325;28;20713;-66
2023/07/14 13:26:01;;;;;;;;;;;27.70;91.40;;;;;;5006287;28;19928;-66
2023/07/14 13:28:30;;;;;;;;;;;27.60;91.10;;;;;;4974795;28;20038;-65
2023/07/14 13:30:55;;;;;;;;;;;27.70;92.20;;;;;;4991699;28;20037;-66
2023/07/14 13:33:25;;;;;;;;;;;27.80;93.10;;;;;;5012289;28;20551;-66
2023/07/14 13:35:56;;;;;;;;;;;27.90;93.80;;;;;;4998143;28;20037;-66
2023/07/14 13:38:22;;;;;;;;;;;28.00;93.20;;;;;;4996569;28;20694;-66
2023/07/14 13:40:50;;;;;;;;;;;28.00;93.80;;;;;;5009308;28;19928;-66
2023/07/14 13:43:17;;;;;;;;;;;28.10;95.30;;;;;;4980595;28;19931;-67
2023/07/14 13:45:44;;;;;;;;;;;28.30;95.30;;;;;;5002342;28;20344;-67
2023/07/14 13:48:24;;;;;;;;;;;28.40;94.20;;;;;;5010268;28;19962;-66
2023/07/14 13:50:49;;;;;;;;;;;28.50;93.90;;;;;;5005479;28;19979;-65
2023/07/14 13:53:15;;;;;;;;;;;28.60;93.20;;;;;;5010458;28;20546;-66
2023/07/14 13:55:40;;;;;;;;;;;28.60;93.30;;;;;;5015568;28;19980;-66
2023/07/14 13:58:10;;;;;;;;;;;28.50;95.40;;;;;;5002927;28;20040;-66
2023/07/14 14:00:36;;;;;;;;;;;28.40;94.80;;;;;;5014475;28;20141;-66
2023/07/14 14:03:04;;;;;;;;;;;28.30;94.20;;;;;;5007836;28;20811;-66
2023/07/14 14:05:33;;;;;;;;;;;28.20;92.90;;;;;;5003892;28;19961;-66
2023/07/14 14:07:59;;;;;;;;;;;28.10;92.70;;;;;;5009745;28;19980;-66
2023/07/14 14:10:27;;;;;;;;;;;28.00;92.40;;;;;;5010511;28;19971;-66
2023/07/14 14:12:54;;;;;;;;;;;27.90;92.40;;;;;;5002705;28;19969;-65
2023/07/14 14:15:21;;;;;;;;;;;27.80;92.80;;;;;;5009447;28;19934;-65
2023/07/14 14:17:56;;;;;;;;;;;27.80;92.30;;;;;;5015792;28;19959;-65
2023/07/14 14:20:26;;;;;;;;;;;27.80;92.80;;;;;;5013583;28;20061;-65
2023/07/14 14:22:52;;;;;;;;;;;28.00;91.90;;;;;;5004972;28;19948;-65